Flight Track Log - Related Links

Times and Time Zones

All times are in EDT time to prevent confusion due to time zone crossing. See the DAL3938 flight status page for this flight to view local times or setup timezone preferences in your user account.

Time Position Orientation Groundspeed Altitude Reporting Facility
EDT Latitude Longitude Course Direction KTS MPH feet Rate Location/Type
Fri 09:31:25 AM 35.3319 -82.5850 214° Southwest 257 296 6,100  Level Atlanta Center
Fri 09:32:00 AM 35.2185 -82.7483 219° Southwest  Level FlightAware Approximate
Fri 09:32:25 AM 35.2764 -82.6497 224° Southwest 271 312 8,700  Level Atlanta Center
Fri 09:33:00 AM 35.1469 -82.8198 219° Southwest  Level FlightAware Approximate
Fri 09:33:25 AM 35.2186 -82.7142 222° Southwest 278 320 11,400  Level Atlanta Center
Fri 09:34:00 AM 35.0786 -82.8959 223° Southwest  Level FlightAware Approximate
Fri 09:34:25 AM 35.1589 -82.7811 223° Southwest 285 328 13,200  Level Atlanta Center
Fri 09:35:00 AM 35.0104 -82.9719 214° Southwest  Level FlightAware Approximate
Fri 09:35:25 AM 35.0886 -82.8583 222° Southwest 300 345 14,000  Level Atlanta Center
Fri 09:36:00 AM 34.9340 -83.0356 214° Southwest  Level FlightAware Approximate
Fri 09:36:25 AM 35.0289 -82.9253 223° Southwest 305 351 14,000  Level Atlanta Center
Fri 09:37:25 AM 34.9647 -83.0022 225° Southwest 313 360 14,000 -50 Level Atlanta Center
Fri 09:38:25 AM 34.8925 -83.0739 219° Southwest 327 376 13,900 -50 Descending Atlanta Center
Fri 09:39:25 AM 34.8178 -83.1431 217° Southwest 337 388 13,900  Level Atlanta Center
Fri 09:40:25 AM 34.7431 -83.2147 218° Southwest 343 395 13,900  Level Atlanta Center
Fri 09:41:25 AM 34.6686 -83.2886 219° Southwest 348 400 13,900  Level Atlanta Center
Fri 09:42:25 AM 34.5958 -83.3600 219° Southwest 342 394 13,900  Level Atlanta Center
Fri 09:43:25 AM 34.5253 -83.4211 216° Southwest 348 400 13,900  Level Atlanta Center
Fri 09:44:25 AM 34.4506 -83.4947 219° Southwest 348 400 13,900 -50 Level Atlanta Center
Fri 09:45:25 AM 34.3778 -83.5706 221° Southwest 353 406 13,800 -50 Descending Atlanta Center
Fri 09:46:25 AM 34.3008 -83.6414 217° Southwest 353 406 13,800  Level Atlanta Center
Fri 09:47:25 AM 34.2281 -83.7147 220° Southwest 346 398 13,800  Level Atlanta Center
Fri 09:48:25 AM 34.1550 -83.7803 217° Southwest 341 392 13,800  Level Atlanta Center
Fri 09:49:25 AM 34.0822 -83.8481 218° Southwest 325 374 13,800  Level Atlanta Center
Fri 09:50:25 AM 34.0156 -83.9211 222° Southwest 313 360 13,800 74 Level Atlanta Center
Fri 09:50:46 AM 34.0000 -83.9333 213° Southwest 306 352 13,900  Climbing Atlanta TRACON
Fri 09:51:46 AM 33.9333 -84.0000 220° Southwest 302 348 13,800 -500 Descending Atlanta TRACON
Fri 09:52:46 AM 33.8667 -84.0833 226° Southwest 307 353 12,900 -970 Descending Atlanta TRACON
Fri 09:53:25 AM 33.8214 -84.1164 211° Southwest 307 353 12,200 -900 Descending Atlanta Center
Fri 09:53:46 AM 33.8000 -84.1333 213° Southwest 306 352 12,000 -148 Descending Atlanta TRACON
Fri 09:54:46 AM 33.7333 -84.2000 220° Southwest 312 359 12,000  Level Atlanta TRACON
Fri 09:55:40 AM 33.7333 -84.3000 270° West 321 369 12,000 -700 Level Atlanta TRACON
Fri 09:56:46 AM 33.7333 -84.4167 270° West 322 371 10,600 -1,400 Descending Atlanta TRACON
Fri 09:57:40 AM 33.7333 -84.5000 270° West 307 353 9,200 -1,556 Descending Atlanta TRACON
Fri 09:58:34 AM 33.7333 -84.6000 270° West 290 334 7,800 -1,526 Descending Atlanta TRACON
Fri 09:59:34 AM 33.7333 -84.6833 270° West 280 322 6,300 -1,388 Descending Atlanta TRACON
Fri 10:00:35 AM 33.7333 -84.7833 270° West 277 319 5,000 -645 Descending Atlanta TRACON
Fri 10:01:35 AM 33.7333 -84.8833 270° West 265 305 5,000  Level Atlanta TRACON
Fri 10:02:34 AM 33.6833 -84.9167 209° Southwest 223 257 5,000  Level Atlanta TRACON
Fri 10:03:29 AM 33.6500 -84.8667 129° Southeast 156 180 5,000  Level Atlanta TRACON
Fri 10:04:28 AM 33.6500 -84.8167 90° East 161 185 5,000  Level Atlanta TRACON
Fri 10:05:28 AM 33.6500 -84.7667 90° East 159 183 5,000  Level Atlanta TRACON
Fri 10:06:29 AM 33.6500 -84.7167 90° East 159 183 5,000 -99 Level Atlanta TRACON
Fri 10:07:29 AM 33.6500 -84.6667 90° East 158 182 4,800 -550 Descending Atlanta TRACON
Fri 10:08:29 AM 33.6500 -84.6167 90° East 158 182 3,900 -842 Descending Atlanta TRACON
Fri 10:09:23 AM 33.6500 -84.5667 90° East 157 181 3,200 -778 Descending Atlanta TRACON

Login

Don't have an account? Register now (free) for customized features, flight alerts, and more!